Time;durP1;ratioP1;P1;durP2;ratioP2;P2;SDS_P1;SDS_P2;PMS_P1;PMS_P2;Temp;Humidity;BMP_temperature;BMP_pressure;BME280_temperature;BME280_humidity;BME280_pressure;Samples;Min_cycle;Max_cycle;Signal;HPM_P1;HPM_P2
2021/10/31 00:01:24;;;;;;;7.15;4.15;;;12.60;99.90;;;;;;5017231;28;20029;-76
2021/10/31 00:03:51;;;;;;;5.00;4.50;;;12.60;99.90;;;;;;5023816;28;20025;-76
2021/10/31 00:06:17;;;;;;;5.90;4.28;;;12.50;99.90;;;;;;5053093;23;20034;-73
2021/10/31 00:08:42;;;;;;;6.60;4.30;;;12.70;99.90;;;;;;5033647;28;20030;-73
2021/10/31 00:11:08;;;;;;;5.13;4.63;;;12.70;99.90;;;;;;5029341;28;20104;-73
2021/10/31 00:13:35;;;;;;;3.95;3.47;;;12.60;99.90;;;;;;5016168;28;20030;-72
2021/10/31 00:16:01;;;;;;;4.97;3.90;;;12.50;99.90;;;;;;5018032;28;20017;-73
2021/10/31 00:18:27;;;;;;;3.88;3.40;;;12.50;99.90;;;;;;4999264;28;20085;-74
2021/10/31 00:20:52;;;;;;;2.97;2.67;;;12.60;99.90;;;;;;5010013;28;20017;-73
2021/10/31 00:23:18;;;;;;;5.60;3.05;;;12.60;99.90;;;;;;5012705;28;20478;-74
2021/10/31 00:25:44;;;;;;;2.60;2.35;;;12.70;99.90;;;;;;5012921;28;20105;-73
2021/10/31 00:28:09;;;;;;;1.85;1.65;;;12.70;99.90;;;;;;5006410;28;20544;-74
2021/10/31 00:30:35;;;;;;;2.35;2.05;;;12.90;99.90;;;;;;5020729;28;20025;-74
2021/10/31 00:33:01;;;;;;;4.63;2.08;;;13.00;99.90;;;;;;5022538;28;20086;-74
2021/10/31 00:35:26;;;;;;;1.85;1.55;;;13.10;99.90;;;;;;5019971;28;20105;-74
2021/10/31 00:37:52;;;;;;;3.45;1.73;;;13.10;99.90;;;;;;5022329;28;20045;-74
2021/10/31 00:40:17;;;;;;;2.25;1.85;;;13.10;99.90;;;;;;5022806;28;20026;-74
2021/10/31 00:42:43;;;;;;;2.30;1.88;;;13.10;99.90;;;;;;5023639;28;20105;-74
2021/10/31 00:45:09;;;;;;;3.15;2.67;;;13.10;99.90;;;;;;5023287;28;20417;-73
2021/10/31 00:47:35;;;;;;;2.85;2.15;;;13.00;99.90;;;;;;5031382;28;20038;-73
2021/10/31 00:50:00;;;;;;;2.17;1.98;;;13.00;99.90;;;;;;5036585;28;20034;-73
2021/10/31 00:52:27;;;;;;;2.35;1.75;;;12.90;99.90;;;;;;5036928;28;20033;-73
2021/10/31 00:54:53;;;;;;;3.55;2.15;;;12.80;99.90;;;;;;5034630;28;20029;-75
2021/10/31 00:57:19;;;;;;;1.90;1.30;;;12.80;99.90;;;;;;5035525;28;20033;-75
2021/10/31 00:59:45;;;;;;;2.20;1.50;;;12.80;99.90;;;;;;5014926;28;20034;-75
2021/10/31 01:02:12;;;;;;;1.88;1.63;;;12.80;99.90;;;;;;5036585;28;20026;-74
2021/10/31 01:04:45;;;;;;;3.42;1.75;;;12.70;99.90;;;;;;5029904;28;20101;-73
2021/10/31 01:07:21;;;;;;;2.65;2.42;;;12.50;99.90;;;;;;5028833;28;20065;-73
2021/10/31 01:10:14;;;;;;;3.15;2.47;;;12.30;99.90;;;;;;5026896;28;20075;-73
2021/10/31 01:12:54;;;;;;;5.75;3.03;;;12.20;99.90;;;;;;5030400;28;20053;-74
2021/10/31 01:15:38;;;;;;;2.92;2.63;;;12.10;99.90;;;;;;5035894;28;20451;-74
2021/10/31 01:18:20;;;;;;;4.68;4.28;;;12.10;99.90;;;;;;5033994;28;20026;-74
2021/10/31 01:21:27;;;;;;;4.53;4.10;;;11.90;99.90;;;;;;5006386;28;20048;-73
2021/10/31 01:24:25;;;;;;;5.93;5.22;;;11.80;99.90;;;;;;5023801;28;20030;-74
2021/10/31 01:27:11;;;;;;;6.22;5.63;;;11.60;99.90;;;;;;5032004;28;20030;-74
2021/10/31 01:29:58;;;;;;;6.75;5.97;;;11.50;99.90;;;;;;5029508;28;20537;-73
2021/10/31 01:32:40;;;;;;;6.68;5.93;;;11.40;99.90;;;;;;5026942;28;20037;-74
2021/10/31 01:35:41;;;;;;;7.65;6.00;;;11.30;99.90;;;;;;5003282;28;20069;-74
2021/10/31 01:38:34;;;;;;;5.30;4.80;;;11.30;99.90;;;;;;5026305;28;20025;-74
2021/10/31 01:41:34;;;;;;;4.90;3.88;;;11.30;99.90;;;;;;5023691;28;20041;-74
2021/10/31 01:44:22;;;;;;;4.47;3.78;;;11.20;99.90;;;;;;5027744;28;20022;-73
2021/10/31 01:47:02;;;;;;;4.90;4.40;;;11.30;99.90;;;;;;5023914;28;20120;-74
2021/10/31 01:49:52;;;;;;;6.23;5.60;;;11.30;99.90;;;;;;5030315;28;20026;-73
2021/10/31 01:52:21;;;;;;;6.82;6.10;;;11.30;99.90;;;;;;5029472;28;20365;-73
2021/10/31 01:55:00;;;;;;;8.20;6.43;;;11.20;99.90;;;;;;5044268;28;20028;-73
2021/10/31 01:57:27;;;;;;;7.18;6.22;;;11.10;99.90;;;;;;5038092;28;20026;-73
2021/10/31 02:00:04;;;;;;;7.53;6.82;;;11.00;99.90;;;;;;5026633;28;20030;-73
2021/10/31 02:02:33;;;;;;;6.47;5.88;;;10.90;99.90;;;;;;5029530;28;20018;-73
2021/10/31 02:05:01;;;;;;;7.38;6.68;;;10.80;99.90;;;;;;5009417;28;20060;-74
2021/10/31 02:07:28;;;;;;;6.80;6.07;;;10.70;99.90;;;;;;5030134;28;20018;-73
2021/10/31 02:09:55;;;;;;;7.18;6.13;;;10.70;99.90;;;;;;5032858;28;20016;-73
2021/10/31 02:12:22;;;;;;;7.63;5.78;;;10.70;99.90;;;;;;5028577;28;20018;-73
2021/10/31 02:14:49;;;;;;;6.85;5.78;;;10.70;99.90;;;;;;5032175;28;20056;-73
2021/10/31 02:17:18;;;;;;;6.15;5.45;;;10.70;99.90;;;;;;5022894;28;20022;-73
2021/10/31 02:19:45;;;;;;;6.63;5.18;;;10.70;99.90;;;;;;5013299;28;20038;-74
2021/10/31 02:22:18;;;;;;;3.67;3.28;;;10.70;99.90;;;;;;5017625;28;20044;-73
2021/10/31 02:24:45;;;;;;;7.63;5.78;;;10.70;99.90;;;;;;5022495;28;20429;-73
2021/10/31 02:27:20;;;;;;;7.03;6.38;;;10.80;99.90;;;;;;5011189;28;20021;-73
2021/10/31 02:29:48;;;;;;;6.53;5.88;;;11.00;99.90;;;;;;5015870;28;20095;-73
2021/10/31 02:32:14;;;;;;;8.82;5.88;;;10.90;99.90;;;;;;5021413;28;20025;-74
2021/10/31 02:34:40;;;;;;;6.63;4.93;;;10.90;99.90;;;;;;5013408;28;20026;-73
2021/10/31 02:37:05;;;;;;;7.43;6.72;;;10.90;99.90;;;;;;5012672;28;20025;-73
2021/10/31 02:39:31;;;;;;;7.93;7.13;;;11.00;99.90;;;;;;5020297;28;20494;-73
2021/10/31 02:41:57;;;;;;;8.20;6.63;;;10.90;99.90;;;;;;5018126;28;20018;-74
2021/10/31 02:44:22;;;;;;;8.27;7.47;;;11.10;99.90;;;;;;5018450;28;20652;-72
2021/10/31 02:46:48;;;;;;;8.80;7.93;;;11.30;99.90;;;;;;5026607;28;20533;-73
2021/10/31 02:49:14;;;;;;;9.32;7.35;;;11.20;99.90;;;;;;5022507;28;20029;-72
2021/10/31 02:52:06;;;;;;;7.63;6.88;;;11.00;99.90;;;;;;5021660;28;20045;-74
2021/10/31 02:55:12;;;;;;;8.45;7.18;;;10.80;99.90;;;;;;5007510;28;20091;-74
2021/10/31 02:58:00;;;;;;;7.80;7.05;;;10.70;99.90;;;;;;5032152;28;20025;-73
2021/10/31 03:00:29;;;;;;;7.43;6.72;;;10.60;99.90;;;;;;5031309;28;20029;-74
2021/10/31 03:02:57;;;;;;;9.00;8.10;;;10.50;99.90;;;;;;5027424;28;20049;-73
2021/10/31 03:05:25;;;;;;;7.90;6.95;;;10.50;99.90;;;;;;5031943;28;20537;-73
2021/10/31 03:07:51;;;;;;;8.35;7.55;;;10.50;99.90;;;;;;5025771;28;20492;-73
2021/10/31 03:10:18;;;;;;;7.70;6.97;;;10.50;99.90;;;;;;5022587;28;20099;-75
2021/10/31 03:12:47;;;;;;;8.25;7.38;;;10.50;99.90;;;;;;5013367;28;20109;-73
2021/10/31 03:15:13;;;;;;;9.13;7.78;;;10.50;99.90;;;;;;5014666;28;20018;-73
2021/10/31 03:17:38;;;;;;;9.05;7.65;;;10.40;99.90;;;;;;5030857;28;20026;-73
2021/10/31 03:20:05;;;;;;;9.55;7.65;;;10.50;99.90;;;;;;5041685;28;20010;-73
2021/10/31 03:22:31;;;;;;;11.77;8.32;;;10.50;99.90;;;;;;5036946;28;20018;-73
2021/10/31 03:24:57;;;;;;;9.23;8.32;;;10.40;99.90;;;;;;5027827;28;20033;-72
2021/10/31 03:27:23;;;;;;;9.52;8.40;;;10.40;99.90;;;;;;5015482;28;20108;-74
2021/10/31 03:29:49;;;;;;;9.15;8.25;;;10.30;99.90;;;;;;5015691;28;20044;-74
2021/10/31 03:32:14;;;;;;;8.98;8.13;;;10.30;99.90;;;;;;5020675;28;20053;-74
2021/10/31 03:34:40;;;;;;;9.18;8.25;;;10.20;99.90;;;;;;5012671;28;20448;-74
2021/10/31 03:37:05;;;;;;;9.95;8.50;;;10.20;99.90;;;;;;5017530;28;20393;-74
2021/10/31 03:39:31;;;;;;;8.70;7.82;;;10.20;99.90;;;;;;5023160;28;20478;-73
2021/10/31 03:41:57;;;;;;;8.82;8.00;;;10.10;99.90;;;;;;5021603;28;20037;-73
2021/10/31 03:44:23;;;;;;;11.07;8.10;;;10.10;99.90;;;;;;5020170;28;20041;-73
2021/10/31 03:46:49;;;;;;;9.52;8.27;;;10.10;99.90;;;;;;5024327;28;20022;-74
2021/10/31 03:49:16;;;;;;;8.98;8.07;;;10.10;99.90;;;;;;5021732;28;20397;-73
2021/10/31 03:51:42;;;;;;;10.00;8.93;;;10.30;99.90;;;;;;5015661;28;20075;-74
2021/10/31 03:54:08;;;;;;;11.13;7.82;;;10.30;99.90;;;;;;5017341;28;20513;-73
2021/10/31 03:56:33;;;;;;;10.98;8.25;;;10.30;99.90;;;;;;5005801;28;20072;-73
2021/10/31 03:58:59;;;;;;;8.32;7.45;;;10.10;99.90;;;;;;5012491;28;20113;-73
2021/10/31 04:01:25;;;;;;;9.63;8.63;;;10.00;99.90;;;;;;4996874;28;20062;-73
2021/10/31 04:03:50;;;;;;;8.93;8.07;;;9.90;99.90;;;;;;5019062;28;20030;-74
2021/10/31 04:06:16;;;;;;;8.93;8.02;;;9.80;99.90;;;;;;5017431;28;20074;-73
2021/10/31 04:08:42;;;;;;;11.90;8.65;;;9.80;99.90;;;;;;5023565;28;20032;-74
2021/10/31 04:11:08;;;;;;;10.02;8.45;;;9.80;99.90;;;;;;5020929;28;20041;-74
2021/10/31 04:13:34;;;;;;;8.63;7.75;;;9.70;99.90;;;;;;5023117;28;20544;-74
2021/10/31 04:16:00;;;;;;;9.38;8.05;;;9.70;99.90;;;;;;5017525;28;20498;-73
2021/10/31 04:18:26;;;;;;;9.25;8.40;;;9.70;99.90;;;;;;5024613;28;20474;-73
2021/10/31 04:20:51;;;;;;;8.35;7.47;;;9.70;99.90;;;;;;5008022;28;20018;-73
2021/10/31 04:23:17;;;;;;;9.40;8.38;;;9.70;99.90;;;;;;5024044;28;20072;-74
2021/10/31 04:25:42;;;;;;;9.85;8.35;;;9.70;99.90;;;;;;5023317;28;20554;-74
2021/10/31 04:28:08;;;;;;;9.45;8.60;;;9.70;99.90;;;;;;5011786;28;20398;-74
2021/10/31 04:30:34;;;;;;;12.77;8.77;;;9.60;99.90;;;;;;5000494;28;20449;-74
2021/10/31 04:33:00;;;;;;;9.13;8.23;;;9.70;99.90;;;;;;5014326;28;20037;-74
2021/10/31 04:35:25;;;;;;;8.82;7.45;;;10.00;99.90;;;;;;5015497;28;20525;-74
2021/10/31 04:37:53;;;;;;;10.15;8.50;;;9.90;99.90;;;;;;5018189;28;20389;-73
2021/10/31 04:40:21;;;;;;;9.10;7.60;;;9.80;99.90;;;;;;5019770;28;20028;-73
2021/10/31 04:42:47;;;;;;;9.05;8.02;;;9.70;99.90;;;;;;5013431;28;20026;-73
2021/10/31 04:45:13;;;;;;;8.60;7.70;;;9.60;99.90;;;;;;5014798;28;20030;-72
2021/10/31 04:47:40;;;;;;;8.90;7.72;;;9.60;99.90;;;;;;5028474;28;20528;-74
2021/10/31 04:50:06;;;;;;;9.52;8.38;;;9.60;99.90;;;;;;4997518;28;20036;-73
2021/10/31 04:52:32;;;;;;;10.50;8.40;;;9.60;99.90;;;;;;5014986;28;20026;-73
2021/10/31 04:54:58;;;;;;;8.93;8.02;;;9.50;99.90;;;;;;5012245;28;20033;-74
2021/10/31 04:57:23;;;;;;;9.13;7.25;;;9.60;99.90;;;;;;5020854;28;20022;-74
2021/10/31 04:59:49;;;;;;;9.70;8.02;;;9.60;99.90;;;;;;5024058;28;20025;-74
2021/10/31 05:02:14;;;;;;;9.10;7.93;;;9.60;99.90;;;;;;5019744;28;20030;-74
2021/10/31 05:04:40;;;;;;;9.15;8.27;;;9.60;99.90;;;;;;5015024;28;20029;-74
2021/10/31 05:07:06;;;;;;;10.15;8.70;;;9.60;99.90;;;;;;4995461;28;20402;-73
2021/10/31 05:09:31;;;;;;;11.05;8.98;;;9.60;99.90;;;;;;5015449;28;20061;-73
2021/10/31 05:11:57;;;;;;;8.88;7.97;;;9.70;99.90;;;;;;5017342;28;20457;-73
2021/10/31 05:14:22;;;;;;;9.45;8.55;;;9.80;99.90;;;;;;5014294;28;20026;-73
2021/10/31 05:16:48;;;;;;;8.38;7.47;;;9.80;99.90;;;;;;5011165;28;20084;-74
2021/10/31 05:19:14;;;;;;;9.30;8.40;;;9.70;99.90;;;;;;5017306;28;20474;-74
2021/10/31 05:21:39;;;;;;;9.63;8.63;;;9.70;99.90;;;;;;5021662;28;20029;-73
2021/10/31 05:24:05;;;;;;;8.75;7.85;;;9.60;99.90;;;;;;5001487;28;20021;-75
2021/10/31 05:26:30;;;;;;;8.68;7.88;;;9.60;99.90;;;;;;5024869;28;20030;-74
2021/10/31 05:28:56;;;;;;;8.52;7.72;;;9.50;99.90;;;;;;5019807;28;20079;-74
2021/10/31 05:31:22;;;;;;;9.68;8.15;;;9.50;99.90;;;;;;5025419;28;20493;-73
2021/10/31 05:33:48;;;;;;;9.38;7.80;;;9.50;99.90;;;;;;5026535;28;20465;-74
2021/10/31 05:36:15;;;;;;;8.25;7.47;;;9.50;99.90;;;;;;5016199;28;20053;-73
2021/10/31 05:38:40;;;;;;;20.58;8.95;;;9.50;99.90;;;;;;5021986;28;20026;-73
2021/10/31 05:41:06;;;;;;;9.15;8.13;;;9.50;99.90;;;;;;5028256;28;20033;-73
2021/10/31 05:43:32;;;;;;;9.07;8.18;;;9.40;99.90;;;;;;5010312;28;20079;-73
2021/10/31 05:45:58;;;;;;;9.60;8.23;;;9.40;99.90;;;;;;5014946;28;20033;-73
2021/10/31 05:48:25;;;;;;;8.77;7.88;;;9.40;99.90;;;;;;5011390;28;20072;-73
2021/10/31 05:50:53;;;;;;;9.20;7.90;;;9.40;99.90;;;;;;5009951;28;20025;-72
2021/10/31 05:53:19;;;;;;;9.88;8.13;;;9.30;99.90;;;;;;5032791;28;20026;-74
2021/10/31 05:55:44;;;;;;;9.38;8.45;;;9.30;99.90;;;;;;5014409;28;20037;-74
2021/10/31 05:58:10;;;;;;;8.45;7.53;;;9.30;99.90;;;;;;4997216;28;20024;-74
2021/10/31 06:00:35;;;;;;;8.43;7.63;;;9.30;99.90;;;;;;5027105;28;20505;-74
2021/10/31 06:03:01;;;;;;;9.90;8.35;;;9.30;99.90;;;;;;5021428;28;20200;-74
2021/10/31 06:05:28;;;;;;;8.93;8.02;;;9.30;99.90;;;;;;5047057;23;20041;-78
2021/10/31 06:07:54;;;;;;;10.10;8.63;;;9.30;99.90;;;;;;5035606;28;20026;-79
2021/10/31 06:10:19;;;;;;;9.45;8.00;;;9.30;99.90;;;;;;5026419;28;20417;-79
2021/10/31 06:12:46;;;;;;;9.75;8.65;;;9.30;99.90;;;;;;5036488;28;20083;-79
2021/10/31 06:15:14;;;;;;;9.00;8.10;;;9.40;99.90;;;;;;5048701;28;20025;-79
2021/10/31 06:17:40;;;;;;;10.73;7.55;;;9.50;99.90;;;;;;5051301;28;20544;-77
2021/10/31 06:20:08;;;;;;;8.95;8.05;;;9.50;99.90;;;;;;5056524;28;20096;-78
2021/10/31 06:22:34;;;;;;;13.90;8.02;;;9.60;99.90;;;;;;5041325;28;20045;-79
2021/10/31 06:24:59;;;;;;;8.82;7.93;;;9.60;99.90;;;;;;5044517;28;20033;-77
2021/10/31 06:27:25;;;;;;;9.75;7.88;;;9.60;99.90;;;;;;5037705;28;20176;-77
2021/10/31 06:29:51;;;;;;;11.98;8.25;;;9.70;99.90;;;;;;5041947;28;20484;-77
2021/10/31 06:32:16;;;;;;;8.88;7.97;;;9.70;99.90;;;;;;5053612;28;20048;-77
2021/10/31 06:34:42;;;;;;;11.73;8.95;;;10.00;99.90;;;;;;5047083;28;20029;-78
2021/10/31 06:37:07;;;;;;;11.90;8.23;;;10.20;99.90;;;;;;5056046;28;20029;-78
2021/10/31 06:39:33;;;;;;;9.35;8.45;;;10.20;99.90;;;;;;5048559;28;20037;-78
2021/10/31 06:41:58;;;;;;;8.70;7.40;;;10.20;99.90;;;;;;5059693;28;20037;-78
2021/10/31 06:44:25;;;;;;;9.57;8.63;;;10.20;99.90;;;;;;5056144;28;20056;-78
2021/10/31 06:46:51;;;;;;;12.07;8.75;;;10.20;99.90;;;;;;5043633;28;20423;-79
2021/10/31 06:49:17;;;;;;;15.68;9.52;;;10.20;99.90;;;;;;5047083;28;20033;-78
2021/10/31 06:51:42;;;;;;;8.40;7.60;;;10.20;99.90;;;;;;5041489;28;20068;-79
2021/10/31 06:54:10;;;;;;;9.40;8.50;;;10.30;99.90;;;;;;5041057;28;20337;-78
2021/10/31 06:56:35;;;;;;;8.70;7.90;;;10.50;99.90;;;;;;5048180;28;20027;-78
2021/10/31 06:59:02;;;;;;;9.77;8.55;;;10.60;99.90;;;;;;5020924;28;20485;-77
2021/10/31 07:01:27;;;;;;;10.85;8.10;;;10.70;99.90;;;;;;5027028;28;20409;-78
2021/10/31 07:03:53;;;;;;;9.35;8.35;;;10.60;99.90;;;;;;5025693;28;20029;-77
2021/10/31 07:06:18;;;;;;;9.63;8.60;;;10.50;99.90;;;;;;5036499;28;20037;-79
2021/10/31 07:08:44;;;;;;;9.55;8.05;;;10.60;99.90;;;;;;5025774;28;20136;-78
2021/10/31 07:11:10;;;;;;;10.85;9.35;;;10.80;99.90;;;;;;5045675;28;20105;-78
2021/10/31 07:13:36;;;;;;;9.73;8.73;;;11.00;99.90;;;;;;5052342;28;20044;-79
2021/10/31 07:16:02;;;;;;;10.30;9.23;;;11.00;99.90;;;;;;5047451;28;20021;-78
2021/10/31 07:18:27;;;;;;;9.73;8.40;;;11.00;99.90;;;;;;5040442;28;20428;-79
2021/10/31 07:20:53;;;;;;;9.40;8.50;;;11.10;99.90;;;;;;5047469;28;20431;-78
2021/10/31 07:23:18;;;;;;;9.02;8.05;;;10.90;99.90;;;;;;5029293;28;20561;-78
2021/10/31 07:25:44;;;;;;;11.75;8.48;;;10.80;99.90;;;;;;5043728;28;20029;-79
2021/10/31 07:28:10;;;;;;;9.07;8.27;;;11.10;99.90;;;;;;5047047;28;20412;-78
2021/10/31 07:30:35;;;;;;;8.98;8.07;;;11.30;99.90;;;;;;5038639;28;20029;-79
2021/10/31 07:33:02;;;;;;;9.90;8.68;;;11.40;99.90;;;;;;5021068;28;20544;-78
2021/10/31 07:35:29;;;;;;;9.27;8.43;;;11.40;99.90;;;;;;5039398;28;20045;-77
2021/10/31 07:37:55;;;;;;;9.15;8.25;;;11.40;99.90;;;;;;5026254;28;20108;-79
2021/10/31 07:40:22;;;;;;;8.25;7.45;;;11.60;99.90;;;;;;5040972;28;20397;-78
2021/10/31 07:42:48;;;;;;;13.07;8.88;;;11.70;99.90;;;;;;5043714;28;20080;-78
2021/10/31 07:45:13;;;;;;;8.82;7.90;;;11.70;99.90;;;;;;5023145;28;20018;-79
2021/10/31 07:47:39;;;;;;;9.15;8.25;;;11.60;99.90;;;;;;5026526;28;20472;-77
2021/10/31 07:50:05;;;;;;;11.45;8.60;;;11.50;99.90;;;;;;5040780;28;20041;-78
2021/10/31 07:52:31;;;;;;;8.70;8.00;;;11.60;99.90;;;;;;5038051;28;20033;-78
2021/10/31 07:54:57;;;;;;;8.80;8.00;;;11.80;99.90;;;;;;5038435;28;20025;-79
2021/10/31 07:57:25;;;;;;;8.55;7.70;;;11.90;99.90;;;;;;5043269;28;20018;-79
2021/10/31 07:59:51;;;;;;;8.77;7.30;;;12.00;99.90;;;;;;5053546;28;20026;-78
2021/10/31 08:02:18;;;;;;;8.48;7.65;;;12.00;99.90;;;;;;5047992;28;20065;-78
2021/10/31 08:04:44;;;;;;;8.90;8.00;;;12.00;99.90;;;;;;5047858;28;20021;-78
2021/10/31 08:07:10;;;;;;;8.90;8.10;;;11.80;99.90;;;;;;5046590;28;20598;-79
2021/10/31 08:09:35;;;;;;;10.80;8.48;;;11.80;99.90;;;;;;5042983;28;20033;-77
2021/10/31 08:12:04;;;;;;;8.60;7.80;;;11.80;99.90;;;;;;5044955;28;20400;-77
2021/10/31 08:14:29;;;;;;;9.57;8.18;;;11.90;99.90;;;;;;5024416;28;20025;-79
2021/10/31 08:16:55;;;;;;;9.23;8.32;;;12.00;99.90;;;;;;5040929;28;20389;-78
2021/10/31 08:19:24;;;;;;;9.05;8.15;;;12.00;99.90;;;;;;5037038;28;20029;-78
2021/10/31 08:21:51;;;;;;;8.57;7.80;;;12.20;99.90;;;;;;5043739;28;20017;-78
2021/10/31 08:24:16;;;;;;;9.70;8.00;;;12.30;99.90;;;;;;5056877;28;20035;-76
2021/10/31 08:26:42;;;;;;;9.50;7.68;;;12.30;99.90;;;;;;5041261;28;20026;-77
2021/10/31 08:29:09;;;;;;;8.95;8.15;;;12.30;99.90;;;;;;5053168;28;20463;-76
2021/10/31 08:31:40;;;;;;;9.85;7.70;;;12.10;99.90;;;;;;5053741;28;20025;-78
2021/10/31 08:34:05;;;;;;;9.73;8.60;;;12.10;99.90;;;;;;5036474;28;20516;-78
2021/10/31 08:36:31;;;;;;;8.70;7.88;;;12.40;99.90;;;;;;5043777;28;20025;-77
2021/10/31 08:38:58;;;;;;;8.65;7.75;;;12.50;99.90;;;;;;5053134;28;20033;-78
2021/10/31 08:41:25;;;;;;;7.93;7.13;;;12.50;99.90;;;;;;5053734;28;20489;-76
2021/10/31 08:43:52;;;;;;;7.43;6.72;;;12.60;99.90;;;;;;5034466;28;20032;-77
2021/10/31 08:46:18;;;;;;;7.25;6.63;;;12.80;99.90;;;;;;5049244;28;20029;-75
2021/10/31 08:48:47;;;;;;;8.30;7.50;;;12.90;99.90;;;;;;5046173;28;20041;-78
2021/10/31 08:51:14;;;;;;;7.63;6.47;;;13.00;99.90;;;;;;5043682;28;20037;-77
2021/10/31 08:53:41;;;;;;;6.45;5.85;;;13.00;99.90;;;;;;5043151;28;20105;-78
2021/10/31 08:56:11;;;;;;;7.75;6.50;;;13.20;99.90;;;;;;5047304;28;20071;-78
2021/10/31 08:58:38;;;;;;;6.13;5.53;;;13.30;99.90;;;;;;5027761;28;20025;-73
2021/10/31 09:01:04;;;;;;;5.32;4.82;;;13.60;99.90;;;;;;5046278;28;20061;-75
2021/10/31 09:03:29;;;;;;;4.50;4.10;;;13.60;99.90;;;;;;5065824;28;20012;-76
2021/10/31 09:05:56;;;;;;;6.20;4.88;;;13.50;99.90;;;;;;5065562;28;20032;-75
2021/10/31 09:08:21;;;;;;;5.47;4.68;;;13.50;99.90;;;;;;5051792;28;20102;-75
2021/10/31 09:10:49;;;;;;;5.00;4.28;;;13.50;99.90;;;;;;5055641;28;20081;-73
2021/10/31 09:13:15;;;;;;;6.68;3.95;;;13.70;99.90;;;;;;5040769;28;20053;-75
2021/10/31 09:15:41;;;;;;;4.10;3.58;;;13.80;99.90;;;;;;5039915;28;20036;-73
2021/10/31 09:18:06;;;;;;;5.28;3.90;;;13.90;99.90;;;;;;5051159;28;20079;-73
2021/10/31 09:20:34;;;;;;;4.38;3.30;;;14.00;99.90;;;;;;5042257;28;20260;-73
2021/10/31 09:23:02;;;;;;;3.75;3.45;;;14.20;99.90;;;;;;5034177;28;20080;-73
2021/10/31 09:25:28;;;;;;;3.90;3.30;;;14.30;99.90;;;;;;5047029;28;20038;-74
2021/10/31 09:27:56;;;;;;;4.82;3.45;;;14.40;99.90;;;;;;5055246;28;20028;-73
2021/10/31 09:30:23;;;;;;;3.38;3.00;;;14.30;99.90;;;;;;5034760;28;20037;-74
2021/10/31 09:32:49;;;;;;;3.28;2.70;;;14.40;99.90;;;;;;5062167;28;20120;-73
2021/10/31 09:35:17;;;;;;;3.90;3.20;;;14.50;99.90;;;;;;5058271;28;20021;-74
2021/10/31 09:37:43;;;;;;;3.15;2.85;;;14.60;99.90;;;;;;5045055;28;20067;-75
2021/10/31 09:40:09;;;;;;;3.70;3.40;;;14.60;99.90;;;;;;5040201;28;20030;-74
2021/10/31 09:42:36;;;;;;;3.95;2.80;;;14.90;99.90;;;;;;5047909;28;20092;-77
2021/10/31 09:45:04;;;;;;;3.92;3.53;;;15.00;99.90;;;;;;5055247;28;20381;-75
2021/10/31 09:47:30;;;;;;;4.07;3.78;;;15.20;99.90;;;;;;5049507;28;20033;-75
2021/10/31 09:49:56;;;;;;;3.58;3.15;;;15.20;99.90;;;;;;5059522;28;20033;-75
2021/10/31 09:52:25;;;;;;;3.78;3.00;;;15.20;99.90;;;;;;5064203;28;20028;-77
2021/10/31 09:54:51;;;;;;;3.65;3.15;;;15.20;99.90;;;;;;5058083;28;20024;-73
2021/10/31 09:57:17;;;;;;;3.40;3.08;;;15.30;99.90;;;;;;5049140;28;20029;-75
2021/10/31 09:59:49;;;;;;;3.65;3.35;;;15.50;99.90;;;;;;5039548;28;20084;-77
2021/10/31 10:02:37;;;;;;;3.55;2.65;;;15.60;99.90;;;;;;5041179;28;20017;-76
2021/10/31 10:05:03;;;;;;;3.70;2.72;;;15.70;99.90;;;;;;5041636;28;20025;-73
2021/10/31 10:07:30;;;;;;;3.05;2.60;;;15.70;99.90;;;;;;5041687;28;20025;-75
2021/10/31 10:09:56;;;;;;;3.17;2.88;;;15.90;99.90;;;;;;5041359;28;20121;-76
2021/10/31 10:12:24;;;;;;;3.50;3.20;;;16.20;99.90;;;;;;5039197;28;20108;-73
2021/10/31 10:15:02;;;;;;;3.80;3.10;;;16.40;99.90;;;;;;5054699;28;20021;-74
2021/10/31 10:17:42;;;;;;;4.00;3.20;;;16.50;99.90;;;;;;5042790;28;20112;-75
2021/10/31 10:20:11;;;;;;;7.17;3.90;;;16.50;99.90;;;;;;5042733;28;20021;-75
2021/10/31 10:22:38;;;;;;;4.85;3.55;;;16.30;99.90;;;;;;5054749;28;20036;-74
2021/10/31 10:25:04;;;;;;;3.75;3.42;;;16.30;99.90;;;;;;5046081;28;20063;-74
2021/10/31 10:27:35;;;;;;;4.30;3.90;;;16.30;99.90;;;;;;5022149;28;20029;-74
2021/10/31 10:30:11;;;;;;;3.60;3.30;;;16.40;99.90;;;;;;5040589;28;20030;-73
2021/10/31 10:32:48;;;;;;;3.80;3.38;;;16.50;99.90;;;;;;5054554;28;20033;-73
2021/10/31 10:35:17;;;;;;;4.18;3.83;;;16.60;99.90;;;;;;5054880;28;20087;-75
2021/10/31 10:37:42;;;;;;;4.88;3.67;;;16.70;99.90;;;;;;5061414;28;20040;-78
2021/10/31 10:40:12;;;;;;;3.60;3.30;;;16.80;99.90;;;;;;5037217;28;20026;-76
2021/10/31 10:42:46;;;;;;;3.88;3.47;;;16.80;99.90;;;;;;5027114;28;20021;-74
2021/10/31 10:45:17;;;;;;;6.68;2.92;;;17.00;99.90;;;;;;5007824;28;20432;-73
2021/10/31 10:47:50;;;;;;;5.72;2.90;;;16.90;99.90;;;;;;5053205;28;20025;-74
2021/10/31 10:50:17;;;;;;;3.05;2.72;;;17.10;99.90;;;;;;5015136;28;20025;-74
2021/10/31 10:52:50;;;;;;;3.15;2.85;;;17.30;99.90;;;;;;5038035;28;20037;-72
2021/10/31 10:55:27;;;;;;;2.78;2.55;;;17.40;99.90;;;;;;5057144;28;20024;-75
2021/10/31 10:57:54;;;;;;;4.40;3.17;;;17.40;99.90;;;;;;5039888;28;20040;-74
2021/10/31 11:00:21;;;;;;;2.90;2.45;;;17.50;99.90;;;;;;5040073;28;20081;-76
2021/10/31 11:03:01;;;;;;;5.97;3.05;;;17.60;99.90;;;;;;5049636;28;20091;-80
2021/10/31 11:05:41;;;;;;;3.20;2.90;;;17.80;99.90;;;;;;5044728;28;20060;-77
2021/10/31 11:08:19;;;;;;;3.10;2.77;;;17.90;99.90;;;;;;5052743;28;20033;-79
2021/10/31 11:10:55;;;;;;;3.05;2.75;;;18.00;99.90;;;;;;5031106;28;20056;-78
2021/10/31 11:13:26;;;;;;;3.47;3.13;;;18.10;99.90;;;;;;5056862;28;20028;-76
2021/10/31 11:15:54;;;;;;;2.78;2.58;;;18.10;99.90;;;;;;5057327;28;20505;-76
2021/10/31 11:18:19;;;;;;;3.20;2.90;;;18.20;99.90;;;;;;5056429;28;20066;-76
2021/10/31 11:20:46;;;;;;;3.80;2.97;;;18.30;99.90;;;;;;5051371;28;20036;-77
2021/10/31 11:23:15;;;;;;;3.88;2.35;;;18.30;99.90;;;;;;5039627;28;20026;-77
2021/10/31 11:25:43;;;;;;;4.20;3.17;;;18.30;99.90;;;;;;5057729;28;20036;-77
2021/10/31 11:28:12;;;;;;;3.75;3.42;;;18.40;99.90;;;;;;5056992;28;20033;-77
2021/10/31 11:30:41;;;;;;;3.00;2.70;;;18.50;99.90;;;;;;5045166;28;20401;-75
2021/10/31 11:33:08;;;;;;;3.08;2.60;;;18.60;99.90;;;;;;5051077;28;20031;-76
2021/10/31 11:35:34;;;;;;;3.45;2.83;;;18.70;99.90;;;;;;5055093;28;20037;-77
2021/10/31 11:38:08;;;;;;;3.78;2.65;;;18.80;99.90;;;;;;5045051;28;20025;-77
2021/10/31 11:40:47;;;;;;;2.67;2.28;;;18.90;99.90;;;;;;5044889;28;20025;-76
2021/10/31 11:43:22;;;;;;;2.40;2.08;;;19.00;99.90;;;;;;5035206;28;20026;-77
2021/10/31 11:45:51;;;;;;;2.63;2.22;;;19.20;99.90;;;;;;5021084;28;20049;-76
2021/10/31 11:48:21;;;;;;;2.88;2.42;;;19.30;99.90;;;;;;5036685;28;20082;-76
2021/10/31 11:50:58;;;;;;;3.45;2.90;;;19.40;99.90;;;;;;5053918;28;20408;-76
2021/10/31 11:53:25;;;;;;;2.13;1.92;;;19.50;99.90;;;;;;5028605;28;20033;-76
2021/10/31 11:55:53;;;;;;;2.20;2.00;;;19.60;99.90;;;;;;5050946;28;20118;-78
2021/10/31 11:58:27;;;;;;;1.73;1.63;;;19.50;99.90;;;;;;5042005;28;20366;-77
2021/10/31 12:00:58;;;;;;;2.08;1.73;;;19.60;99.90;;;;;;5039600;28;20131;-77
2021/10/31 12:03:32;;;;;;;1.60;1.50;;;19.60;99.90;;;;;;5027568;28;20029;-77
2021/10/31 12:06:20;;;;;;;2.03;1.83;;;19.70;99.90;;;;;;5083816;23;20055;-79
2021/10/31 12:08:54;;;;;;;2.35;1.73;;;19.70;99.90;;;;;;5056366;28;20071;-81
2021/10/31 12:11:39;;;;;;;2.58;1.45;;;19.70;99.90;;;;;;5062671;28;20021;-84
2021/10/31 12:14:08;;;;;;;5.43;1.63;;;19.90;99.90;;;;;;5056347;28;20075;-80
2021/10/31 12:16:57;;;;;;;1.60;1.20;;;20.00;99.90;;;;;;5038258;28;20109;-80
2021/10/31 12:19:41;;;;;;;2.03;1.90;;;20.00;99.90;;;;;;5037588;28;20033;-79
2021/10/31 12:22:12;;;;;;;3.05;2.00;;;19.90;99.90;;;;;;5036138;28;20482;-79
2021/10/31 12:24:40;;;;;;;2.13;1.95;;;20.00;99.90;;;;;;5038950;28;20072;-80
2021/10/31 12:27:21;;;;;;;3.10;2.10;;;19.90;99.90;;;;;;5028410;28;20075;-80
2021/10/31 12:30:14;;;;;;;1.90;1.20;;;20.00;99.90;;;;;;5038090;28;20029;-80
2021/10/31 12:32:44;;;;;;;2.35;1.98;;;20.00;99.90;;;;;;5039694;28;20485;-80
2021/10/31 12:35:32;;;;;;;2.80;1.42;;;19.90;99.90;;;;;;5042784;28;20052;-79
2021/10/31 12:38:16;;;;;;;1.40;1.20;;;19.90;99.90;;;;;;5050368;28;20065;-81
2021/10/31 12:40:43;;;;;;;2.13;1.50;;;20.10;99.40;;;;;;5057618;28;20021;-80
2021/10/31 12:43:09;;;;;;;2.45;1.35;;;20.00;99.20;;;;;;5060423;28;20022;-81
2021/10/31 12:45:37;;;;;;;1.80;1.27;;;20.20;97.90;;;;;;5060370;28;20017;-81
2021/10/31 12:48:10;;;;;;;1.38;1.27;;;20.20;98.10;;;;;;5059979;28;20018;-81
2021/10/31 12:50:49;;;;;;;1.40;1.30;;;20.30;98.00;;;;;;5058902;28;20075;-81
2021/10/31 12:53:14;;;;;;;1.77;1.10;;;20.40;96.10;;;;;;5034758;28;20061;-78
2021/10/31 12:55:42;;;;;;;2.00;1.30;;;20.40;96.40;;;;;;5043188;28;20504;-82
2021/10/31 12:58:14;;;;;;;1.77;1.30;;;20.20;97.20;;;;;;5044123;28;20029;-80